sensor_id;sensor_type;location;lat;lon;timestamp;P1;durP1;ratioP1;P2;durP2;ratioP2
30553;SDS011;17335;50.720;7.452;2024-03-07T00:02:07;19.13;;;7.60;;
30553;SDS011;17335;50.720;7.452;2024-03-07T00:04:34;19.70;;;7.80;;
30553;SDS011;17335;50.720;7.452;2024-03-07T00:07:03;19.17;;;7.88;;
30553;SDS011;17335;50.720;7.452;2024-03-07T00:09:33;18.70;;;7.40;;
30553;SDS011;17335;50.720;7.452;2024-03-07T00:12:01;25.35;;;8.25;;
30553;SDS011;17335;50.720;7.452;2024-03-07T00:14:31;26.70;;;9.27;;
30553;SDS011;17335;50.720;7.452;2024-03-07T00:16:58;23.50;;;8.35;;
30553;SDS011;17335;50.720;7.452;2024-03-07T00:19:29;22.42;;;9.43;;
30553;SDS011;17335;50.720;7.452;2024-03-07T00:21:58;22.63;;;8.70;;
30553;SDS011;17335;50.720;7.452;2024-03-07T00:24:25;22.05;;;8.85;;
30553;SDS011;17335;50.720;7.452;2024-03-07T00:26:53;23.75;;;9.35;;
30553;SDS011;17335;50.720;7.452;2024-03-07T00:29:20;22.38;;;8.65;;
30553;SDS011;17335;50.720;7.452;2024-03-07T00:31:47;24.95;;;8.95;;
30553;SDS011;17335;50.720;7.452;2024-03-07T00:34:14;23.30;;;8.60;;
30553;SDS011;17335;50.720;7.452;2024-03-07T00:36:50;24.05;;;8.23;;
30553;SDS011;17335;50.720;7.452;2024-03-07T00:39:18;24.52;;;9.38;;
30553;SDS011;17335;50.720;7.452;2024-03-07T00:41:46;25.90;;;8.60;;
30553;SDS011;17335;50.720;7.452;2024-03-07T00:44:12;21.85;;;8.95;;
30553;SDS011;17335;50.720;7.452;2024-03-07T00:46:39;22.08;;;9.35;;
30553;SDS011;17335;50.720;7.452;2024-03-07T00:49:05;25.10;;;9.25;;
30553;SDS011;17335;50.720;7.452;2024-03-07T00:51:32;20.17;;;8.15;;
30553;SDS011;17335;50.720;7.452;2024-03-07T00:53:58;24.13;;;9.15;;
30553;SDS011;17335;50.720;7.452;2024-03-07T00:56:25;20.17;;;8.07;;
30553;SDS011;17335;50.720;7.452;2024-03-07T00:58:51;22.38;;;8.00;;
30553;SDS011;17335;50.720;7.452;2024-03-07T01:01:18;28.13;;;10.40;;
30553;SDS011;17335;50.720;7.452;2024-03-07T01:03:47;22.83;;;8.35;;
30553;SDS011;17335;50.720;7.452;2024-03-07T01:06:14;25.83;;;9.07;;
30553;SDS011;17335;50.720;7.452;2024-03-07T01:08:40;25.80;;;9.18;;
30553;SDS011;17335;50.720;7.452;2024-03-07T01:11:07;21.38;;;9.25;;
30553;SDS011;17335;50.720;7.452;2024-03-07T01:13:38;27.08;;;9.18;;
30553;SDS011;17335;50.720;7.452;2024-03-07T01:16:05;23.52;;;8.82;;
30553;SDS011;17335;50.720;7.452;2024-03-07T01:18:32;22.40;;;8.88;;
30553;SDS011;17335;50.720;7.452;2024-03-07T01:20:59;18.88;;;8.30;;
30553;SDS011;17335;50.720;7.452;2024-03-07T01:23:30;24.92;;;9.15;;
30553;SDS011;17335;50.720;7.452;2024-03-07T01:25:57;21.02;;;9.10;;
30553;SDS011;17335;50.720;7.452;2024-03-07T01:28:28;25.92;;;9.35;;
30553;SDS011;17335;50.720;7.452;2024-03-07T01:30:59;24.27;;;9.38;;
30553;SDS011;17335;50.720;7.452;2024-03-07T01:33:26;18.38;;;7.40;;
30553;SDS011;17335;50.720;7.452;2024-03-07T01:35:53;22.00;;;9.00;;
30553;SDS011;17335;50.720;7.452;2024-03-07T01:38:19;20.27;;;8.07;;
30553;SDS011;17335;50.720;7.452;2024-03-07T01:40:46;25.20;;;8.40;;
30553;SDS011;17335;50.720;7.452;2024-03-07T01:43:12;26.08;;;8.93;;
30553;SDS011;17335;50.720;7.452;2024-03-07T01:45:38;24.83;;;9.00;;
30553;SDS011;17335;50.720;7.452;2024-03-07T01:48:06;25.52;;;9.07;;
30553;SDS011;17335;50.720;7.452;2024-03-07T01:50:35;22.58;;;8.40;;
30553;SDS011;17335;50.720;7.452;2024-03-07T01:53:06;22.30;;;10.05;;
30553;SDS011;17335;50.720;7.452;2024-03-07T01:55:35;25.63;;;9.30;;
30553;SDS011;17335;50.720;7.452;2024-03-07T01:58:04;24.60;;;9.55;;
30553;SDS011;17335;50.720;7.452;2024-03-07T02:03:01;26.80;;;10.90;;
30553;SDS011;17335;50.720;7.452;2024-03-07T02:05:27;28.65;;;9.30;;
30553;SDS011;17335;50.720;7.452;2024-03-07T02:07:54;26.20;;;10.80;;
30553;SDS011;17335;50.720;7.452;2024-03-07T02:10:20;24.55;;;10.10;;
30553;SDS011;17335;50.720;7.452;2024-03-07T02:12:46;21.33;;;8.40;;
30553;SDS011;17335;50.720;7.452;2024-03-07T02:15:13;29.08;;;9.38;;
30553;SDS011;17335;50.720;7.452;2024-03-07T02:17:40;27.48;;;9.60;;
30553;SDS011;17335;50.720;7.452;2024-03-07T02:20:08;24.73;;;10.23;;
30553;SDS011;17335;50.720;7.452;2024-03-07T02:22:37;29.27;;;9.80;;
30553;SDS011;17335;50.720;7.452;2024-03-07T02:25:04;29.55;;;10.18;;
30553;SDS011;17335;50.720;7.452;2024-03-07T02:27:31;25.60;;;9.82;;
30553;SDS011;17335;50.720;7.452;2024-03-07T02:29:57;26.17;;;9.45;;
30553;SDS011;17335;50.720;7.452;2024-03-07T02:32:23;26.52;;;9.82;;
30553;SDS011;17335;50.720;7.452;2024-03-07T02:34:51;28.27;;;9.85;;
30553;SDS011;17335;50.720;7.452;2024-03-07T02:37:18;29.00;;;9.93;;
30553;SDS011;17335;50.720;7.452;2024-03-07T02:39:45;27.00;;;9.90;;
30553;SDS011;17335;50.720;7.452;2024-03-07T02:42:11;25.15;;;9.30;;
30553;SDS011;17335;50.720;7.452;2024-03-07T02:44:38;27.48;;;11.43;;
30553;SDS011;17335;50.720;7.452;2024-03-07T02:47:05;29.67;;;11.02;;
30553;SDS011;17335;50.720;7.452;2024-03-07T02:49:32;29.45;;;10.75;;
30553;SDS011;17335;50.720;7.452;2024-03-07T02:51:59;29.70;;;10.57;;
30553;SDS011;17335;50.720;7.452;2024-03-07T02:54:25;28.50;;;11.18;;
30553;SDS011;17335;50.720;7.452;2024-03-07T02:56:52;30.15;;;10.07;;
30553;SDS011;17335;50.720;7.452;2024-03-07T02:59:18;41.42;;;12.68;;
30553;SDS011;17335;50.720;7.452;2024-03-07T03:01:45;29.52;;;10.82;;
30553;SDS011;17335;50.720;7.452;2024-03-07T03:04:13;32.30;;;11.27;;
30553;SDS011;17335;50.720;7.452;2024-03-07T03:06:40;32.90;;;11.88;;
30553;SDS011;17335;50.720;7.452;2024-03-07T03:09:06;28.95;;;10.23;;
30553;SDS011;17335;50.720;7.452;2024-03-07T03:11:39;29.77;;;11.07;;
30553;SDS011;17335;50.720;7.452;2024-03-07T03:14:06;28.27;;;11.32;;
30553;SDS011;17335;50.720;7.452;2024-03-07T03:16:32;32.10;;;12.45;;
30553;SDS011;17335;50.720;7.452;2024-03-07T03:19:13;26.42;;;10.45;;
30553;SDS011;17335;50.720;7.452;2024-03-07T03:21:39;31.30;;;11.55;;
30553;SDS011;17335;50.720;7.452;2024-03-07T03:24:06;29.45;;;10.98;;
30553;SDS011;17335;50.720;7.452;2024-03-07T03:26:33;31.58;;;12.30;;
30553;SDS011;17335;50.720;7.452;2024-03-07T03:29:00;31.77;;;13.05;;
30553;SDS011;17335;50.720;7.452;2024-03-07T03:31:26;32.50;;;12.77;;
30553;SDS011;17335;50.720;7.452;2024-03-07T03:33:53;35.95;;;14.02;;
30553;SDS011;17335;50.720;7.452;2024-03-07T03:36:19;38.28;;;14.23;;
30553;SDS011;17335;50.720;7.452;2024-03-07T03:38:46;34.95;;;13.70;;
30553;SDS011;17335;50.720;7.452;2024-03-07T03:41:16;38.40;;;15.80;;
30553;SDS011;17335;50.720;7.452;2024-03-07T03:43:43;35.75;;;13.43;;
30553;SDS011;17335;50.720;7.452;2024-03-07T03:46:10;43.58;;;14.63;;
30553;SDS011;17335;50.720;7.452;2024-03-07T03:48:41;33.10;;;13.40;;
30553;SDS011;17335;50.720;7.452;2024-03-07T03:51:08;31.25;;;13.73;;
30553;SDS011;17335;50.720;7.452;2024-03-07T03:53:35;34.00;;;13.27;;
30553;SDS011;17335;50.720;7.452;2024-03-07T03:56:03;36.85;;;14.05;;
30553;SDS011;17335;50.720;7.452;2024-03-07T03:58:32;34.92;;;14.73;;
30553;SDS011;17335;50.720;7.452;2024-03-07T04:01:00;37.08;;;14.50;;
30553;SDS011;17335;50.720;7.452;2024-03-07T04:03:26;35.72;;;13.75;;
30553;SDS011;17335;50.720;7.452;2024-03-07T04:05:53;38.42;;;14.38;;
30553;SDS011;17335;50.720;7.452;2024-03-07T04:08:21;42.13;;;14.63;;
30553;SDS011;17335;50.720;7.452;2024-03-07T04:10:48;42.72;;;14.20;;
30553;SDS011;17335;50.720;7.452;2024-03-07T04:13:14;34.50;;;13.90;;
30553;SDS011;17335;50.720;7.452;2024-03-07T04:15:41;40.30;;;13.52;;
30553;SDS011;17335;50.720;7.452;2024-03-07T04:18:10;38.33;;;14.13;;
30553;SDS011;17335;50.720;7.452;2024-03-07T04:20:37;35.95;;;14.65;;
30553;SDS011;17335;50.720;7.452;2024-03-07T04:23:05;39.58;;;15.18;;
30553;SDS011;17335;50.720;7.452;2024-03-07T04:25:34;44.80;;;15.18;;
30553;SDS011;17335;50.720;7.452;2024-03-07T04:28:01;38.92;;;14.15;;
30553;SDS011;17335;50.720;7.452;2024-03-07T04:30:27;38.53;;;14.55;;
30553;SDS011;17335;50.720;7.452;2024-03-07T04:32:54;39.15;;;14.52;;
30553;SDS011;17335;50.720;7.452;2024-03-07T04:35:20;42.58;;;16.02;;
30553;SDS011;17335;50.720;7.452;2024-03-07T04:37:48;42.03;;;15.40;;
30553;SDS011;17335;50.720;7.452;2024-03-07T04:40:14;44.78;;;15.70;;
30553;SDS011;17335;50.720;7.452;2024-03-07T04:42:42;41.30;;;16.38;;
30553;SDS011;17335;50.720;7.452;2024-03-07T04:45:10;40.30;;;15.80;;
30553;SDS011;17335;50.720;7.452;2024-03-07T04:47:42;40.92;;;14.52;;
30553;SDS011;17335;50.720;7.452;2024-03-07T04:50:11;38.72;;;14.20;;
30553;SDS011;17335;50.720;7.452;2024-03-07T04:52:39;34.90;;;13.80;;
30553;SDS011;17335;50.720;7.452;2024-03-07T04:55:06;38.92;;;15.60;;
30553;SDS011;17335;50.720;7.452;2024-03-07T04:57:39;43.88;;;15.15;;
30553;SDS011;17335;50.720;7.452;2024-03-07T05:00:10;43.72;;;16.73;;
30553;SDS011;17335;50.720;7.452;2024-03-07T05:05:09;44.95;;;14.75;;
30553;SDS011;17335;50.720;7.452;2024-03-07T05:07:36;38.88;;;15.05;;
30553;SDS011;17335;50.720;7.452;2024-03-07T05:10:04;38.45;;;15.40;;
30553;SDS011;17335;50.720;7.452;2024-03-07T05:12:31;45.42;;;15.10;;
30553;SDS011;17335;50.720;7.452;2024-03-07T05:14:59;35.58;;;14.98;;
30553;SDS011;17335;50.720;7.452;2024-03-07T05:17:25;43.60;;;15.25;;
30553;SDS011;17335;50.720;7.452;2024-03-07T05:19:52;45.05;;;16.38;;
30553;SDS011;17335;50.720;7.452;2024-03-07T05:22:19;39.28;;;15.45;;
30553;SDS011;17335;50.720;7.452;2024-03-07T05:24:48;33.75;;;14.18;;
30553;SDS011;17335;50.720;7.452;2024-03-07T05:27:16;37.92;;;14.10;;
30553;SDS011;17335;50.720;7.452;2024-03-07T05:29:43;40.60;;;15.10;;
30553;SDS011;17335;50.720;7.452;2024-03-07T05:32:22;45.20;;;16.02;;
30553;SDS011;17335;50.720;7.452;2024-03-07T05:34:49;41.35;;;15.00;;
30553;SDS011;17335;50.720;7.452;2024-03-07T05:37:16;43.10;;;15.05;;
30553;SDS011;17335;50.720;7.452;2024-03-07T05:39:43;38.28;;;15.48;;
30553;SDS011;17335;50.720;7.452;2024-03-07T05:42:09;32.50;;;14.85;;
30553;SDS011;17335;50.720;7.452;2024-03-07T05:44:43;35.67;;;14.68;;
30553;SDS011;17335;50.720;7.452;2024-03-07T05:47:10;39.03;;;15.25;;
30553;SDS011;17335;50.720;7.452;2024-03-07T05:49:40;38.08;;;15.18;;
30553;SDS011;17335;50.720;7.452;2024-03-07T05:52:06;49.20;;;15.23;;
30553;SDS011;17335;50.720;7.452;2024-03-07T05:54:33;36.20;;;13.32;;
30553;SDS011;17335;50.720;7.452;2024-03-07T05:57:00;37.38;;;15.88;;
30553;SDS011;17335;50.720;7.452;2024-03-07T05:59:27;32.28;;;14.30;;
30553;SDS011;17335;50.720;7.452;2024-03-07T06:01:59;39.00;;;14.73;;
30553;SDS011;17335;50.720;7.452;2024-03-07T06:04:26;39.80;;;15.02;;
30553;SDS011;17335;50.720;7.452;2024-03-07T06:06:53;37.33;;;14.95;;
30553;SDS011;17335;50.720;7.452;2024-03-07T06:09:20;40.63;;;14.43;;
30553;SDS011;17335;50.720;7.452;2024-03-07T06:11:49;45.15;;;17.23;;
30553;SDS011;17335;50.720;7.452;2024-03-07T06:14:16;40.45;;;15.65;;
30553;SDS011;17335;50.720;7.452;2024-03-07T06:16:43;38.80;;;15.18;;
30553;SDS011;17335;50.720;7.452;2024-03-07T06:19:10;45.28;;;16.50;;
30553;SDS011;17335;50.720;7.452;2024-03-07T06:21:38;45.20;;;16.33;;
30553;SDS011;17335;50.720;7.452;2024-03-07T06:24:05;41.78;;;16.05;;
30553;SDS011;17335;50.720;7.452;2024-03-07T06:26:36;38.75;;;15.27;;
30553;SDS011;17335;50.720;7.452;2024-03-07T06:29:04;43.95;;;16.25;;
30553;SDS011;17335;50.720;7.452;2024-03-07T06:31:33;36.10;;;15.00;;
30553;SDS011;17335;50.720;7.452;2024-03-07T06:34:03;38.72;;;15.10;;
30553;SDS011;17335;50.720;7.452;2024-03-07T06:36:30;40.75;;;14.52;;
30553;SDS011;17335;50.720;7.452;2024-03-07T06:38:56;40.85;;;16.27;;
30553;SDS011;17335;50.720;7.452;2024-03-07T06:41:23;37.55;;;16.80;;
30553;SDS011;17335;50.720;7.452;2024-03-07T06:43:51;37.30;;;15.40;;
30553;SDS011;17335;50.720;7.452;2024-03-07T06:46:19;47.20;;;17.05;;
30553;SDS011;17335;50.720;7.452;2024-03-07T06:48:46;39.83;;;14.10;;
30553;SDS011;17335;50.720;7.452;2024-03-07T06:51:13;37.05;;;14.38;;
30553;SDS011;17335;50.720;7.452;2024-03-07T06:53:39;37.65;;;14.57;;
30553;SDS011;17335;50.720;7.452;2024-03-07T06:56:06;48.65;;;14.98;;
30553;SDS011;17335;50.720;7.452;2024-03-07T06:58:32;42.25;;;15.65;;
30553;SDS011;17335;50.720;7.452;2024-03-07T07:00:59;31.83;;;14.25;;
30553;SDS011;17335;50.720;7.452;2024-03-07T07:03:27;37.85;;;14.43;;
30553;SDS011;17335;50.720;7.452;2024-03-07T07:05:58;31.52;;;13.43;;
30553;SDS011;17335;50.720;7.452;2024-03-07T07:08:25;32.53;;;13.52;;
30553;SDS011;17335;50.720;7.452;2024-03-07T07:10:52;38.40;;;14.55;;
30553;SDS011;17335;50.720;7.452;2024-03-07T07:13:21;39.05;;;13.27;;
30553;SDS011;17335;50.720;7.452;2024-03-07T07:15:48;36.83;;;13.30;;
30553;SDS011;17335;50.720;7.452;2024-03-07T07:18:15;36.53;;;14.10;;
30553;SDS011;17335;50.720;7.452;2024-03-07T07:20:43;33.38;;;13.20;;
30553;SDS011;17335;50.720;7.452;2024-03-07T07:23:09;32.10;;;13.25;;
30553;SDS011;17335;50.720;7.452;2024-03-07T07:25:36;37.58;;;13.07;;
30553;SDS011;17335;50.720;7.452;2024-03-07T07:28:03;31.85;;;13.00;;
30553;SDS011;17335;50.720;7.452;2024-03-07T07:30:34;36.47;;;14.60;;
30553;SDS011;17335;50.720;7.452;2024-03-07T07:33:00;36.35;;;14.20;;
30553;SDS011;17335;50.720;7.452;2024-03-07T07:35:27;34.65;;;12.95;;
30553;SDS011;17335;50.720;7.452;2024-03-07T07:37:53;30.52;;;13.07;;
30553;SDS011;17335;50.720;7.452;2024-03-07T07:40:22;34.22;;;15.27;;
30553;SDS011;17335;50.720;7.452;2024-03-07T07:42:50;36.15;;;14.98;;
30553;SDS011;17335;50.720;7.452;2024-03-07T07:45:19;31.73;;;15.30;;
30553;SDS011;17335;50.720;7.452;2024-03-07T07:47:48;42.20;;;15.27;;
30553;SDS011;17335;50.720;7.452;2024-03-07T07:50:16;46.00;;;14.95;;
30553;SDS011;17335;50.720;7.452;2024-03-07T07:52:50;32.00;;;14.38;;
30553;SDS011;17335;50.720;7.452;2024-03-07T07:55:20;35.92;;;14.95;;
30553;SDS011;17335;50.720;7.452;2024-03-07T07:57:48;34.80;;;13.25;;
30553;SDS011;17335;50.720;7.452;2024-03-07T08:00:19;38.15;;;14.68;;
30553;SDS011;17335;50.720;7.452;2024-03-07T08:02:50;35.45;;;15.52;;
30553;SDS011;17335;50.720;7.452;2024-03-07T08:05:21;33.83;;;15.55;;
30553;SDS011;17335;50.720;7.452;2024-03-07T08:07:53;41.80;;;15.90;;
30553;SDS011;17335;50.720;7.452;2024-03-07T08:10:23;33.03;;;14.38;;
30553;SDS011;17335;50.720;7.452;2024-03-07T08:12:55;36.33;;;15.20;;
30553;SDS011;17335;50.720;7.452;2024-03-07T08:15:25;44.80;;;17.67;;
30553;SDS011;17335;50.720;7.452;2024-03-07T08:17:54;37.95;;;16.27;;
30553;SDS011;17335;50.720;7.452;2024-03-07T08:20:24;33.20;;;15.07;;
30553;SDS011;17335;50.720;7.452;2024-03-07T08:22:55;37.00;;;15.32;;
30553;SDS011;17335;50.720;7.452;2024-03-07T08:25:23;40.88;;;15.63;;
30553;SDS011;17335;50.720;7.452;2024-03-07T08:27:52;37.03;;;14.90;;
30553;SDS011;17335;50.720;7.452;2024-03-07T08:30:20;42.47;;;17.00;;
30553;SDS011;17335;50.720;7.452;2024-03-07T08:32:56;42.00;;;16.48;;
30553;SDS011;17335;50.720;7.452;2024-03-07T08:35:23;35.63;;;15.32;;
30553;SDS011;17335;50.720;7.452;2024-03-07T08:37:51;40.03;;;15.90;;
30553;SDS011;17335;50.720;7.452;2024-03-07T08:40:21;36.25;;;14.65;;
30553;SDS011;17335;50.720;7.452;2024-03-07T08:42:54;37.70;;;15.10;;
30553;SDS011;17335;50.720;7.452;2024-03-07T08:45:20;33.75;;;13.77;;
30553;SDS011;17335;50.720;7.452;2024-03-07T08:47:48;36.83;;;14.80;;
30553;SDS011;17335;50.720;7.452;2024-03-07T08:50:17;30.52;;;13.32;;
30553;SDS011;17335;50.720;7.452;2024-03-07T08:52:44;30.73;;;13.55;;
30553;SDS011;17335;50.720;7.452;2024-03-07T08:55:12;36.20;;;13.85;;
30553;SDS011;17335;50.720;7.452;2024-03-07T08:57:40;32.33;;;12.70;;
30553;SDS011;17335;50.720;7.452;2024-03-07T09:00:08;38.83;;;14.43;;
30553;SDS011;17335;50.720;7.452;2024-03-07T09:02:40;29.58;;;12.75;;
30553;SDS011;17335;50.720;7.452;2024-03-07T09:05:08;31.13;;;12.77;;
30553;SDS011;17335;50.720;7.452;2024-03-07T09:07:37;35.42;;;13.18;;
30553;SDS011;17335;50.720;7.452;2024-03-07T09:10:04;31.98;;;12.70;;
30553;SDS011;17335;50.720;7.452;2024-03-07T09:12:33;29.40;;;11.77;;
30553;SDS011;17335;50.720;7.452;2024-03-07T09:14:59;30.52;;;12.88;;
30553;SDS011;17335;50.720;7.452;2024-03-07T09:17:26;29.17;;;12.55;;
30553;SDS011;17335;50.720;7.452;2024-03-07T09:19:52;30.02;;;12.50;;
30553;SDS011;17335;50.720;7.452;2024-03-07T09:22:19;31.00;;;12.25;;
30553;SDS011;17335;50.720;7.452;2024-03-07T09:24:45;31.33;;;12.23;;
30553;SDS011;17335;50.720;7.452;2024-03-07T09:27:12;29.52;;;12.65;;
30553;SDS011;17335;50.720;7.452;2024-03-07T09:29:41;30.23;;;11.80;;
30553;SDS011;17335;50.720;7.452;2024-03-07T09:32:07;28.45;;;11.73;;
30553;SDS011;17335;50.720;7.452;2024-03-07T09:34:35;27.35;;;12.32;;
30553;SDS011;17335;50.720;7.452;2024-03-07T09:37:04;33.40;;;12.30;;
30553;SDS011;17335;50.720;7.452;2024-03-07T09:39:33;32.20;;;12.98;;
30553;SDS011;17335;50.720;7.452;2024-03-07T09:42:04;33.30;;;13.20;;
30553;SDS011;17335;50.720;7.452;2024-03-07T09:44:38;31.08;;;12.48;;
30553;SDS011;17335;50.720;7.452;2024-03-07T09:47:07;40.55;;;13.80;;
30553;SDS011;17335;50.720;7.452;2024-03-07T09:49:34;30.80;;;13.00;;
30553;SDS011;17335;50.720;7.452;2024-03-07T09:52:03;30.67;;;12.55;;
30553;SDS011;17335;50.720;7.452;2024-03-07T09:54:34;27.58;;;12.35;;
30553;SDS011;17335;50.720;7.452;2024-03-07T09:57:01;40.35;;;13.10;;
30553;SDS011;17335;50.720;7.452;2024-03-07T09:59:30;31.92;;;12.68;;
30553;SDS011;17335;50.720;7.452;2024-03-07T10:02:01;27.52;;;11.52;;
30553;SDS011;17335;50.720;7.452;2024-03-07T10:04:37;26.10;;;12.45;;
30553;SDS011;17335;50.720;7.452;2024-03-07T10:07:11;28.75;;;12.25;;
30553;SDS011;17335;50.720;7.452;2024-03-07T10:09:40;27.30;;;12.70;;
30553;SDS011;17335;50.720;7.452;2024-03-07T10:12:08;26.38;;;11.43;;
30553;SDS011;17335;50.720;7.452;2024-03-07T10:14:48;30.42;;;13.25;;
30553;SDS011;17335;50.720;7.452;2024-03-07T10:17:18;28.92;;;12.15;;
30553;SDS011;17335;50.720;7.452;2024-03-07T10:19:48;32.58;;;12.05;;
30553;SDS011;17335;50.720;7.452;2024-03-07T10:22:19;26.40;;;11.18;;
30553;SDS011;17335;50.720;7.452;2024-03-07T10:24:50;28.15;;;12.27;;
30553;SDS011;17335;50.720;7.452;2024-03-07T10:27:20;30.73;;;11.45;;
30553;SDS011;17335;50.720;7.452;2024-03-07T10:29:47;26.92;;;10.88;;
30553;SDS011;17335;50.720;7.452;2024-03-07T10:32:14;30.10;;;12.45;;
30553;SDS011;17335;50.720;7.452;2024-03-07T10:34:45;27.33;;;11.73;;
30553;SDS011;17335;50.720;7.452;2024-03-07T10:37:12;24.58;;;11.20;;
30553;SDS011;17335;50.720;7.452;2024-03-07T10:39:46;30.63;;;11.98;;
30553;SDS011;17335;50.720;7.452;2024-03-07T10:42:16;26.23;;;11.57;;
30553;SDS011;17335;50.720;7.452;2024-03-07T10:44:43;27.27;;;10.75;;
30553;SDS011;17335;50.720;7.452;2024-03-07T10:47:18;26.67;;;10.90;;
30553;SDS011;17335;50.720;7.452;2024-03-07T10:52:13;27.98;;;12.00;;
30553;SDS011;17335;50.720;7.452;2024-03-07T10:55:00;26.10;;;11.55;;
30553;SDS011;17335;50.720;7.452;2024-03-07T10:57:47;26.10;;;11.38;;
30553;SDS011;17335;50.720;7.452;2024-03-07T11:00:17;27.05;;;11.70;;
30553;SDS011;17335;50.720;7.452;2024-03-07T11:02:58;21.38;;;9.50;;
30553;SDS011;17335;50.720;7.452;2024-03-07T11:05:25;25.15;;;10.20;;
30553;SDS011;17335;50.720;7.452;2024-03-07T11:07:57;22.83;;;8.98;;
30553;SDS011;17335;50.720;7.452;2024-03-07T11:10:25;25.40;;;11.05;;
30553;SDS011;17335;50.720;7.452;2024-03-07T11:12:52;22.20;;;9.77;;
30553;SDS011;17335;50.720;7.452;2024-03-07T11:15:21;19.10;;;9.18;;
30553;SDS011;17335;50.720;7.452;2024-03-07T11:17:52;20.20;;;9.02;;
30553;SDS011;17335;50.720;7.452;2024-03-07T11:20:21;17.55;;;8.57;;
30553;SDS011;17335;50.720;7.452;2024-03-07T11:22:49;24.90;;;10.20;;
30553;SDS011;17335;50.720;7.452;2024-03-07T11:25:17;24.95;;;9.82;;
30553;SDS011;17335;50.720;7.452;2024-03-07T11:27:50;23.85;;;10.52;;
30553;SDS011;17335;50.720;7.452;2024-03-07T11:30:22;20.35;;;9.25;;
30553;SDS011;17335;50.720;7.452;2024-03-07T11:32:53;21.75;;;8.90;;
30553;SDS011;17335;50.720;7.452;2024-03-07T11:35:21;18.23;;;8.55;;
30553;SDS011;17335;50.720;7.452;2024-03-07T11:38:02;18.38;;;7.97;;
30553;SDS011;17335;50.720;7.452;2024-03-07T11:43:01;18.15;;;8.75;;
30553;SDS011;17335;50.720;7.452;2024-03-07T11:45:31;17.42;;;7.88;;
30553;SDS011;17335;50.720;7.452;2024-03-07T11:48:11;20.13;;;8.38;;
30553;SDS011;17335;50.720;7.452;2024-03-07T11:50:38;20.65;;;8.93;;
30553;SDS011;17335;50.720;7.452;2024-03-07T11:53:06;17.58;;;8.23;;
30553;SDS011;17335;50.720;7.452;2024-03-07T11:55:34;18.20;;;8.13;;
30553;SDS011;17335;50.720;7.452;2024-03-07T11:58:13;14.73;;;6.97;;
30553;SDS011;17335;50.720;7.452;2024-03-07T12:00:43;17.90;;;8.15;;
30553;SDS011;17335;50.720;7.452;2024-03-07T12:03:13;18.65;;;8.00;;
30553;SDS011;17335;50.720;7.452;2024-03-07T12:05:43;17.52;;;7.38;;
30553;SDS011;17335;50.720;7.452;2024-03-07T12:08:17;16.55;;;7.90;;
30553;SDS011;17335;50.720;7.452;2024-03-07T12:10:45;20.40;;;8.35;;
30553;SDS011;17335;50.720;7.452;2024-03-07T12:13:15;17.85;;;7.13;;
30553;SDS011;17335;50.720;7.452;2024-03-07T12:15:42;16.25;;;8.35;;
30553;SDS011;17335;50.720;7.452;2024-03-07T12:18:09;19.80;;;8.77;;
30553;SDS011;17335;50.720;7.452;2024-03-07T12:20:37;20.15;;;8.20;;
30553;SDS011;17335;50.720;7.452;2024-03-07T12:23:05;18.58;;;8.23;;
30553;SDS011;17335;50.720;7.452;2024-03-07T12:25:34;18.48;;;8.45;;
30553;SDS011;17335;50.720;7.452;2024-03-07T12:28:06;21.60;;;8.55;;
30553;SDS011;17335;50.720;7.452;2024-03-07T12:30:47;18.05;;;8.40;;
30553;SDS011;17335;50.720;7.452;2024-03-07T12:33:14;18.42;;;8.38;;
30553;SDS011;17335;50.720;7.452;2024-03-07T12:35:40;22.52;;;8.45;;
30553;SDS011;17335;50.720;7.452;2024-03-07T12:38:10;17.73;;;8.48;;
30553;SDS011;17335;50.720;7.452;2024-03-07T12:40:37;19.75;;;8.57;;
30553;SDS011;17335;50.720;7.452;2024-03-07T12:43:16;20.90;;;9.15;;
30553;SDS011;17335;50.720;7.452;2024-03-07T12:45:51;20.83;;;8.63;;
30553;SDS011;17335;50.720;7.452;2024-03-07T12:48:18;20.83;;;8.93;;
30553;SDS011;17335;50.720;7.452;2024-03-07T12:50:51;19.90;;;9.30;;
30553;SDS011;17335;50.720;7.452;2024-03-07T12:53:24;22.00;;;9.10;;
30553;SDS011;17335;50.720;7.452;2024-03-07T12:55:55;25.08;;;9.68;;
30553;SDS011;17335;50.720;7.452;2024-03-07T12:58:21;21.08;;;8.73;;
30553;SDS011;17335;50.720;7.452;2024-03-07T13:00:52;22.90;;;10.00;;
30553;SDS011;17335;50.720;7.452;2024-03-07T13:03:22;20.42;;;9.00;;
30553;SDS011;17335;50.720;7.452;2024-03-07T13:05:49;21.23;;;9.05;;
30553;SDS011;17335;50.720;7.452;2024-03-07T13:08:15;23.75;;;9.38;;
30553;SDS011;17335;50.720;7.452;2024-03-07T13:10:42;19.25;;;8.48;;
30553;SDS011;17335;50.720;7.452;2024-03-07T13:13:09;19.23;;;8.52;;
30553;SDS011;17335;50.720;7.452;2024-03-07T13:15:37;18.58;;;8.15;;
30553;SDS011;17335;50.720;7.452;2024-03-07T13:18:05;19.70;;;8.73;;
30553;SDS011;17335;50.720;7.452;2024-03-07T13:20:32;21.13;;;9.35;;
30553;SDS011;17335;50.720;7.452;2024-03-07T13:22:59;20.02;;;9.25;;
30553;SDS011;17335;50.720;7.452;2024-03-07T13:25:27;23.58;;;10.40;;
30553;SDS011;17335;50.720;7.452;2024-03-07T13:28:05;21.75;;;10.13;;
30553;SDS011;17335;50.720;7.452;2024-03-07T13:30:34;20.75;;;9.02;;
30553;SDS011;17335;50.720;7.452;2024-03-07T13:33:02;19.23;;;9.35;;
30553;SDS011;17335;50.720;7.452;2024-03-07T13:35:29;20.98;;;9.20;;
30553;SDS011;17335;50.720;7.452;2024-03-07T13:37:56;23.65;;;9.55;;
30553;SDS011;17335;50.720;7.452;2024-03-07T13:40:23;27.67;;;9.38;;
30553;SDS011;17335;50.720;7.452;2024-03-07T13:42:55;19.67;;;8.95;;
30553;SDS011;17335;50.720;7.452;2024-03-07T13:45:29;18.40;;;9.02;;
30553;SDS011;17335;50.720;7.452;2024-03-07T13:47:58;21.40;;;10.98;;
30553;SDS011;17335;50.720;7.452;2024-03-07T13:50:26;21.13;;;9.40;;
30553;SDS011;17335;50.720;7.452;2024-03-07T13:53:16;19.90;;;8.45;;
30553;SDS011;17335;50.720;7.452;2024-03-07T13:58:50;25.42;;;9.43;;
30553;SDS011;17335;50.720;7.452;2024-03-07T14:04:16;16.27;;;7.95;;
30553;SDS011;17335;50.720;7.452;2024-03-07T14:09:42;19.05;;;8.80;;
30553;SDS011;17335;50.720;7.452;2024-03-07T14:18:53;18.85;;;9.35;;
30553;SDS011;17335;50.720;7.452;2024-03-07T14:21:31;22.77;;;9.32;;
30553;SDS011;17335;50.720;7.452;2024-03-07T14:24:36;20.23;;;8.93;;
30553;SDS011;17335;50.720;7.452;2024-03-07T14:30:55;19.27;;;8.85;;
30553;SDS011;17335;50.720;7.452;2024-03-07T14:33:28;26.23;;;11.05;;
30553;SDS011;17335;50.720;7.452;2024-03-07T14:41:06;20.67;;;9.05;;
30553;SDS011;17335;50.720;7.452;2024-03-07T14:43:34;17.75;;;7.93;;
30553;SDS011;17335;50.720;7.452;2024-03-07T14:46:01;22.35;;;8.00;;
30553;SDS011;17335;50.720;7.452;2024-03-07T14:48:27;20.83;;;8.90;;
30553;SDS011;17335;50.720;7.452;2024-03-07T14:50:54;18.23;;;8.68;;
30553;SDS011;17335;50.720;7.452;2024-03-07T14:53:21;15.00;;;7.38;;
30553;SDS011;17335;50.720;7.452;2024-03-07T14:55:48;17.65;;;8.00;;
30553;SDS011;17335;50.720;7.452;2024-03-07T14:58:15;25.55;;;8.25;;
30553;SDS011;17335;50.720;7.452;2024-03-07T15:00:42;16.67;;;7.50;;
30553;SDS011;17335;50.720;7.452;2024-03-07T15:03:22;15.73;;;8.05;;
30553;SDS011;17335;50.720;7.452;2024-03-07T15:05:50;17.98;;;8.10;;
30553;SDS011;17335;50.720;7.452;2024-03-07T15:08:18;14.23;;;7.13;;
30553;SDS011;17335;50.720;7.452;2024-03-07T15:10:52;19.58;;;8.45;;